sensor_id;sensor_type;location;lat;lon;timestamp;P1;durP1;ratioP1;P2;durP2;ratioP2
286;SDS011;127;48.770;9.212;2022-10-30T00:01:19;12.47;;;3.97;;
286;SDS011;127;48.770;9.212;2022-10-30T00:03:48;27.27;;;4.37;;
286;SDS011;127;48.770;9.212;2022-10-30T00:06:16;10.13;;;3.10;;
286;SDS011;127;48.770;9.212;2022-10-30T00:08:45;15.30;;;3.20;;
286;SDS011;127;48.770;9.212;2022-10-30T00:11:14;16.13;;;4.00;;
286;SDS011;127;48.770;9.212;2022-10-30T00:13:42;7.90;;;3.17;;
286;SDS011;127;48.770;9.212;2022-10-30T00:16:14;12.03;;;4.23;;
286;SDS011;127;48.770;9.212;2022-10-30T00:18:42;9.80;;;3.73;;
286;SDS011;127;48.770;9.212;2022-10-30T00:21:12;12.90;;;3.63;;
286;SDS011;127;48.770;9.212;2022-10-30T00:23:45;12.57;;;3.83;;
286;SDS011;127;48.770;9.212;2022-10-30T00:26:16;10.73;;;4.13;;
286;SDS011;127;48.770;9.212;2022-10-30T00:28:48;15.37;;;4.10;;
286;SDS011;127;48.770;9.212;2022-10-30T00:31:19;17.47;;;4.30;;
286;SDS011;127;48.770;9.212;2022-10-30T00:33:48;20.70;;;4.50;;
286;SDS011;127;48.770;9.212;2022-10-30T00:36:18;14.37;;;3.77;;
286;SDS011;127;48.770;9.212;2022-10-30T00:38:47;12.33;;;3.03;;
286;SDS011;127;48.770;9.212;2022-10-30T00:41:16;21.67;;;4.00;;
286;SDS011;127;48.770;9.212;2022-10-30T00:43:46;9.47;;;3.53;;
286;SDS011;127;48.770;9.212;2022-10-30T00:46:20;16.10;;;4.77;;
286;SDS011;127;48.770;9.212;2022-10-30T00:48:53;24.83;;;4.07;;
286;SDS011;127;48.770;9.212;2022-10-30T00:51:25;8.27;;;3.93;;
286;SDS011;127;48.770;9.212;2022-10-30T00:53:56;14.77;;;3.10;;
286;SDS011;127;48.770;9.212;2022-10-30T00:56:27;15.73;;;3.63;;
286;SDS011;127;48.770;9.212;2022-10-30T00:58:57;13.07;;;3.53;;
286;SDS011;127;48.770;9.212;2022-10-30T01:01:33;10.33;;;3.70;;
286;SDS011;127;48.770;9.212;2022-10-30T01:04:05;12.50;;;4.50;;
286;SDS011;127;48.770;9.212;2022-10-30T01:06:34;13.47;;;4.27;;
286;SDS011;127;48.770;9.212;2022-10-30T01:09:05;15.17;;;4.37;;
286;SDS011;127;48.770;9.212;2022-10-30T01:11:34;22.17;;;4.47;;
286;SDS011;127;48.770;9.212;2022-10-30T01:14:04;17.77;;;4.20;;
286;SDS011;127;48.770;9.212;2022-10-30T01:19:33;10.67;;;4.30;;
286;SDS011;127;48.770;9.212;2022-10-30T01:22:15;12.40;;;3.50;;
286;SDS011;127;48.770;9.212;2022-10-30T01:24:57;15.17;;;3.83;;
286;SDS011;127;48.770;9.212;2022-10-30T01:27:37;11.50;;;4.33;;
286;SDS011;127;48.770;9.212;2022-10-30T01:30:13;22.70;;;4.50;;
286;SDS011;127;48.770;9.212;2022-10-30T01:33:00;15.10;;;4.83;;
286;SDS011;127;48.770;9.212;2022-10-30T01:35:36;20.60;;;4.87;;
286;SDS011;127;48.770;9.212;2022-10-30T01:38:11;17.00;;;4.80;;
286;SDS011;127;48.770;9.212;2022-10-30T01:40:46;17.13;;;4.70;;
286;SDS011;127;48.770;9.212;2022-10-30T01:43:14;26.40;;;4.30;;
286;SDS011;127;48.770;9.212;2022-10-30T01:45:54;18.37;;;4.10;;
286;SDS011;127;48.770;9.212;2022-10-30T01:48:48;15.63;;;5.13;;
286;SDS011;127;48.770;9.212;2022-10-30T01:51:39;15.07;;;5.27;;
286;SDS011;127;48.770;9.212;2022-10-30T01:54:16;14.13;;;5.47;;
286;SDS011;127;48.770;9.212;2022-10-30T01:56:53;22.87;;;9.40;;
286;SDS011;127;48.770;9.212;2022-10-30T01:59:29;20.90;;;7.53;;
286;SDS011;127;48.770;9.212;2022-10-30T02:02:03;24.23;;;7.87;;
286;SDS011;127;48.770;9.212;2022-10-30T02:04:34;35.53;;;8.50;;
286;SDS011;127;48.770;9.212;2022-10-30T02:07:03;19.60;;;6.93;;
286;SDS011;127;48.770;9.212;2022-10-30T02:09:33;14.37;;;6.00;;
286;SDS011;127;48.770;9.212;2022-10-30T02:12:02;20.17;;;5.87;;
286;SDS011;127;48.770;9.212;2022-10-30T02:14:32;19.93;;;6.63;;
286;SDS011;127;48.770;9.212;2022-10-30T02:17:04;19.33;;;6.77;;
286;SDS011;127;48.770;9.212;2022-10-30T02:19:38;20.00;;;5.97;;
286;SDS011;127;48.770;9.212;2022-10-30T02:22:09;16.33;;;5.10;;
286;SDS011;127;48.770;9.212;2022-10-30T02:24:38;23.30;;;6.03;;
286;SDS011;127;48.770;9.212;2022-10-30T02:27:07;20.40;;;6.10;;
286;SDS011;127;48.770;9.212;2022-10-30T02:29:36;20.00;;;7.60;;
286;SDS011;127;48.770;9.212;2022-10-30T02:32:05;29.30;;;7.20;;
286;SDS011;127;48.770;9.212;2022-10-30T02:34:33;25.87;;;7.50;;
286;SDS011;127;48.770;9.212;2022-10-30T02:37:02;14.17;;;6.67;;
286;SDS011;127;48.770;9.212;2022-10-30T02:39:33;20.83;;;7.10;;
286;SDS011;127;48.770;9.212;2022-10-30T02:42:02;17.43;;;6.60;;
286;SDS011;127;48.770;9.212;2022-10-30T02:44:31;30.60;;;7.80;;
286;SDS011;127;48.770;9.212;2022-10-30T02:47:00;37.73;;;6.60;;
286;SDS011;127;48.770;9.212;2022-10-30T02:49:29;15.67;;;5.17;;
286;SDS011;127;48.770;9.212;2022-10-30T02:51:57;15.17;;;6.00;;
286;SDS011;127;48.770;9.212;2022-10-30T02:54:26;20.17;;;6.43;;
286;SDS011;127;48.770;9.212;2022-10-30T02:56:57;18.47;;;6.50;;
286;SDS011;127;48.770;9.212;2022-10-30T02:59:26;32.47;;;7.00;;
286;SDS011;127;48.770;9.212;2022-10-30T03:01:54;22.43;;;7.20;;
286;SDS011;127;48.770;9.212;2022-10-30T03:04:23;22.90;;;7.43;;
286;SDS011;127;48.770;9.212;2022-10-30T03:06:52;26.13;;;6.47;;
286;SDS011;127;48.770;9.212;2022-10-30T03:09:20;20.43;;;7.10;;
286;SDS011;127;48.770;9.212;2022-10-30T03:11:49;13.30;;;6.00;;
286;SDS011;127;48.770;9.212;2022-10-30T03:14:20;18.20;;;6.57;;
286;SDS011;127;48.770;9.212;2022-10-30T03:16:49;20.87;;;6.17;;
286;SDS011;127;48.770;9.212;2022-10-30T03:19:18;25.70;;;5.93;;
286;SDS011;127;48.770;9.212;2022-10-30T03:21:47;13.03;;;5.97;;
286;SDS011;127;48.770;9.212;2022-10-30T03:24:15;19.20;;;5.10;;
286;SDS011;127;48.770;9.212;2022-10-30T03:26:44;23.40;;;6.50;;
286;SDS011;127;48.770;9.212;2022-10-30T03:29:13;13.57;;;4.63;;
286;SDS011;127;48.770;9.212;2022-10-30T03:31:45;14.90;;;4.60;;
286;SDS011;127;48.770;9.212;2022-10-30T03:34:13;16.27;;;5.60;;
286;SDS011;127;48.770;9.212;2022-10-30T03:36:42;13.30;;;4.83;;
286;SDS011;127;48.770;9.212;2022-10-30T03:39:11;15.07;;;4.90;;
286;SDS011;127;48.770;9.212;2022-10-30T03:41:39;19.13;;;4.80;;
286;SDS011;127;48.770;9.212;2022-10-30T03:44:09;23.87;;;5.53;;
286;SDS011;127;48.770;9.212;2022-10-30T03:46:37;19.20;;;5.20;;
286;SDS011;127;48.770;9.212;2022-10-30T03:49:08;25.50;;;5.90;;
286;SDS011;127;48.770;9.212;2022-10-30T03:51:37;23.63;;;6.00;;
286;SDS011;127;48.770;9.212;2022-10-30T03:54:06;17.90;;;5.40;;
286;SDS011;127;48.770;9.212;2022-10-30T03:56:34;13.20;;;5.63;;
286;SDS011;127;48.770;9.212;2022-10-30T03:59:03;17.30;;;6.60;;
286;SDS011;127;48.770;9.212;2022-10-30T04:01:32;22.37;;;6.97;;
286;SDS011;127;48.770;9.212;2022-10-30T04:04:00;21.23;;;5.60;;
286;SDS011;127;48.770;9.212;2022-10-30T04:06:31;20.50;;;6.17;;
286;SDS011;127;48.770;9.212;2022-10-30T04:09:00;28.80;;;7.43;;
286;SDS011;127;48.770;9.212;2022-10-30T04:11:29;19.30;;;7.90;;
286;SDS011;127;48.770;9.212;2022-10-30T04:13:57;26.07;;;7.47;;
286;SDS011;127;48.770;9.212;2022-10-30T04:16:26;21.33;;;7.10;;
286;SDS011;127;48.770;9.212;2022-10-30T04:18:54;23.60;;;8.03;;
286;SDS011;127;48.770;9.212;2022-10-30T04:21:23;15.17;;;7.70;;
286;SDS011;127;48.770;9.212;2022-10-30T04:23:54;24.87;;;7.67;;
286;SDS011;127;48.770;9.212;2022-10-30T04:26:23;22.93;;;7.07;;
286;SDS011;127;48.770;9.212;2022-10-30T04:28:51;32.73;;;7.47;;
286;SDS011;127;48.770;9.212;2022-10-30T04:31:20;22.40;;;7.20;;
286;SDS011;127;48.770;9.212;2022-10-30T04:33:49;22.43;;;7.07;;
286;SDS011;127;48.770;9.212;2022-10-30T04:36:17;22.07;;;7.43;;
286;SDS011;127;48.770;9.212;2022-10-30T04:38:48;18.83;;;7.43;;
286;SDS011;127;48.770;9.212;2022-10-30T04:41:19;19.50;;;6.87;;
286;SDS011;127;48.770;9.212;2022-10-30T04:43:48;16.63;;;6.60;;
286;SDS011;127;48.770;9.212;2022-10-30T04:46:17;20.80;;;6.00;;
286;SDS011;127;48.770;9.212;2022-10-30T04:48:45;14.80;;;5.90;;
286;SDS011;127;48.770;9.212;2022-10-30T04:51:14;23.23;;;6.80;;
286;SDS011;127;48.770;9.212;2022-10-30T04:53:43;18.77;;;5.63;;
286;SDS011;127;48.770;9.212;2022-10-30T04:56:12;24.87;;;7.03;;
286;SDS011;127;48.770;9.212;2022-10-30T04:58:43;29.00;;;6.47;;
286;SDS011;127;48.770;9.212;2022-10-30T05:01:12;12.57;;;5.80;;
286;SDS011;127;48.770;9.212;2022-10-30T05:03:40;17.70;;;6.13;;
286;SDS011;127;48.770;9.212;2022-10-30T05:06:12;20.07;;;6.03;;
286;SDS011;127;48.770;9.212;2022-10-30T05:08:45;11.47;;;5.17;;
286;SDS011;127;48.770;9.212;2022-10-30T05:11:14;18.93;;;5.50;;
286;SDS011;127;48.770;9.212;2022-10-30T05:13:45;14.77;;;5.53;;
286;SDS011;127;48.770;9.212;2022-10-30T05:16:14;12.80;;;5.27;;
286;SDS011;127;48.770;9.212;2022-10-30T05:18:42;17.60;;;5.20;;
286;SDS011;127;48.770;9.212;2022-10-30T05:21:11;17.60;;;5.13;;
286;SDS011;127;48.770;9.212;2022-10-30T05:23:40;17.20;;;4.77;;
286;SDS011;127;48.770;9.212;2022-10-30T05:26:08;18.40;;;5.83;;
286;SDS011;127;48.770;9.212;2022-10-30T05:28:37;17.00;;;6.30;;
286;SDS011;127;48.770;9.212;2022-10-30T05:31:09;22.37;;;6.87;;
286;SDS011;127;48.770;9.212;2022-10-30T05:33:37;17.17;;;5.87;;
286;SDS011;127;48.770;9.212;2022-10-30T05:36:06;13.53;;;6.03;;
286;SDS011;127;48.770;9.212;2022-10-30T05:38:35;15.53;;;5.90;;
286;SDS011;127;48.770;9.212;2022-10-30T05:41:04;15.03;;;6.00;;
286;SDS011;127;48.770;9.212;2022-10-30T05:43:33;23.17;;;6.07;;
286;SDS011;127;48.770;9.212;2022-10-30T05:46:01;20.03;;;6.50;;
286;SDS011;127;48.770;9.212;2022-10-30T05:48:33;24.10;;;7.20;;
286;SDS011;127;48.770;9.212;2022-10-30T05:51:02;20.37;;;5.83;;
286;SDS011;127;48.770;9.212;2022-10-30T05:53:32;17.00;;;7.23;;
286;SDS011;127;48.770;9.212;2022-10-30T05:56:01;35.80;;;6.83;;
286;SDS011;127;48.770;9.212;2022-10-30T05:58:29;17.33;;;6.83;;
286;SDS011;127;48.770;9.212;2022-10-30T06:00:58;16.93;;;7.73;;
286;SDS011;127;48.770;9.212;2022-10-30T06:03:27;20.80;;;7.40;;
286;SDS011;127;48.770;9.212;2022-10-30T06:05:58;14.97;;;6.00;;
286;SDS011;127;48.770;9.212;2022-10-30T06:08:26;12.23;;;5.97;;
286;SDS011;127;48.770;9.212;2022-10-30T06:10:55;22.83;;;6.00;;
286;SDS011;127;48.770;9.212;2022-10-30T06:13:24;18.17;;;6.00;;
286;SDS011;127;48.770;9.212;2022-10-30T06:15:53;18.10;;;6.30;;
286;SDS011;127;48.770;9.212;2022-10-30T06:18:22;13.93;;;6.30;;
286;SDS011;127;48.770;9.212;2022-10-30T06:20:52;20.60;;;6.10;;
286;SDS011;127;48.770;9.212;2022-10-30T06:23:24;14.70;;;5.40;;
286;SDS011;127;48.770;9.212;2022-10-30T06:25:52;17.33;;;5.50;;
286;SDS011;127;48.770;9.212;2022-10-30T06:28:21;14.03;;;4.97;;
286;SDS011;127;48.770;9.212;2022-10-30T06:30:52;21.27;;;6.50;;
286;SDS011;127;48.770;9.212;2022-10-30T06:33:20;36.13;;;6.40;;
286;SDS011;127;48.770;9.212;2022-10-30T06:35:49;22.30;;;6.50;;
286;SDS011;127;48.770;9.212;2022-10-30T06:38:18;23.47;;;5.50;;
286;SDS011;127;48.770;9.212;2022-10-30T06:40:49;16.50;;;5.30;;
286;SDS011;127;48.770;9.212;2022-10-30T06:43:18;14.20;;;5.60;;
286;SDS011;127;48.770;9.212;2022-10-30T06:45:46;12.20;;;4.90;;
286;SDS011;127;48.770;9.212;2022-10-30T06:48:15;13.03;;;5.00;;
286;SDS011;127;48.770;9.212;2022-10-30T06:50:44;16.50;;;5.60;;
286;SDS011;127;48.770;9.212;2022-10-30T06:53:20;14.00;;;6.13;;
286;SDS011;127;48.770;9.212;2022-10-30T06:55:57;21.77;;;7.30;;
286;SDS011;127;48.770;9.212;2022-10-30T06:58:27;19.00;;;6.73;;
286;SDS011;127;48.770;9.212;2022-10-30T07:00:58;15.53;;;7.00;;
286;SDS011;127;48.770;9.212;2022-10-30T07:03:27;18.53;;;7.07;;
286;SDS011;127;48.770;9.212;2022-10-30T07:05:56;23.37;;;7.20;;
286;SDS011;127;48.770;9.212;2022-10-30T07:08:24;12.90;;;7.47;;
286;SDS011;127;48.770;9.212;2022-10-30T07:10:57;20.57;;;6.60;;
286;SDS011;127;48.770;9.212;2022-10-30T07:13:26;19.23;;;7.30;;
286;SDS011;127;48.770;9.212;2022-10-30T07:15:54;16.70;;;6.33;;
286;SDS011;127;48.770;9.212;2022-10-30T07:18:24;19.13;;;7.37;;
286;SDS011;127;48.770;9.212;2022-10-30T07:20:53;33.77;;;7.17;;
286;SDS011;127;48.770;9.212;2022-10-30T07:23:22;20.53;;;7.93;;
286;SDS011;127;48.770;9.212;2022-10-30T07:25:51;20.80;;;8.60;;
286;SDS011;127;48.770;9.212;2022-10-30T07:28:22;27.83;;;9.07;;
286;SDS011;127;48.770;9.212;2022-10-30T07:30:51;24.20;;;7.83;;
286;SDS011;127;48.770;9.212;2022-10-30T07:33:20;21.60;;;8.60;;
286;SDS011;127;48.770;9.212;2022-10-30T07:35:48;18.13;;;8.33;;
286;SDS011;127;48.770;9.212;2022-10-30T07:38:17;20.80;;;8.93;;
286;SDS011;127;48.770;9.212;2022-10-30T07:40:50;13.50;;;6.10;;
286;SDS011;127;48.770;9.212;2022-10-30T07:43:20;19.43;;;8.37;;
286;SDS011;127;48.770;9.212;2022-10-30T07:45:51;26.00;;;8.97;;
286;SDS011;127;48.770;9.212;2022-10-30T07:48:20;21.30;;;7.53;;
286;SDS011;127;48.770;9.212;2022-10-30T07:50:49;19.70;;;7.90;;
286;SDS011;127;48.770;9.212;2022-10-30T07:53:18;15.40;;;7.53;;
286;SDS011;127;48.770;9.212;2022-10-30T07:55:46;20.63;;;6.90;;
286;SDS011;127;48.770;9.212;2022-10-30T07:58:15;14.50;;;7.00;;
286;SDS011;127;48.770;9.212;2022-10-30T08:00:46;16.83;;;7.10;;
286;SDS011;127;48.770;9.212;2022-10-30T08:03:15;20.93;;;6.90;;
286;SDS011;127;48.770;9.212;2022-10-30T08:05:44;25.37;;;8.10;;
286;SDS011;127;48.770;9.212;2022-10-30T08:08:12;22.43;;;6.90;;
286;SDS011;127;48.770;9.212;2022-10-30T08:10:43;20.93;;;6.07;;
286;SDS011;127;48.770;9.212;2022-10-30T08:13:20;14.10;;;6.63;;
286;SDS011;127;48.770;9.212;2022-10-30T08:15:51;15.73;;;7.17;;
286;SDS011;127;48.770;9.212;2022-10-30T08:18:20;19.80;;;7.97;;
286;SDS011;127;48.770;9.212;2022-10-30T08:20:49;19.60;;;8.30;;
286;SDS011;127;48.770;9.212;2022-10-30T08:23:18;18.60;;;6.97;;
286;SDS011;127;48.770;9.212;2022-10-30T08:25:47;13.93;;;5.67;;
286;SDS011;127;48.770;9.212;2022-10-30T08:28:15;45.43;;;7.30;;
286;SDS011;127;48.770;9.212;2022-10-30T08:30:44;16.97;;;7.00;;
286;SDS011;127;48.770;9.212;2022-10-30T08:33:15;25.13;;;7.40;;
286;SDS011;127;48.770;9.212;2022-10-30T08:35:47;15.93;;;6.30;;
286;SDS011;127;48.770;9.212;2022-10-30T08:38:17;15.27;;;6.60;;
286;SDS011;127;48.770;9.212;2022-10-30T08:40:46;14.00;;;5.90;;
286;SDS011;127;48.770;9.212;2022-10-30T08:43:14;13.63;;;5.87;;
286;SDS011;127;48.770;9.212;2022-10-30T08:45:44;19.40;;;6.43;;
286;SDS011;127;48.770;9.212;2022-10-30T08:48:16;16.60;;;7.00;;
286;SDS011;127;48.770;9.212;2022-10-30T08:50:44;18.07;;;6.20;;
286;SDS011;127;48.770;9.212;2022-10-30T08:53:13;14.77;;;5.70;;
286;SDS011;127;48.770;9.212;2022-10-30T08:55:44;13.30;;;6.77;;
286;SDS011;127;48.770;9.212;2022-10-30T08:58:13;21.40;;;6.57;;
286;SDS011;127;48.770;9.212;2022-10-30T09:00:41;16.30;;;5.97;;
286;SDS011;127;48.770;9.212;2022-10-30T09:03:16;20.10;;;6.30;;
286;SDS011;127;48.770;9.212;2022-10-30T09:05:44;17.60;;;6.17;;
286;SDS011;127;48.770;9.212;2022-10-30T09:08:13;14.77;;;6.40;;
286;SDS011;127;48.770;9.212;2022-10-30T09:10:42;16.77;;;6.60;;
286;SDS011;127;48.770;9.212;2022-10-30T09:13:12;15.80;;;5.37;;
286;SDS011;127;48.770;9.212;2022-10-30T09:15:40;13.17;;;6.03;;
286;SDS011;127;48.770;9.212;2022-10-30T09:18:12;23.60;;;5.40;;
286;SDS011;127;48.770;9.212;2022-10-30T09:20:43;28.23;;;5.63;;
286;SDS011;127;48.770;9.212;2022-10-30T09:23:15;15.90;;;5.37;;
286;SDS011;127;48.770;9.212;2022-10-30T09:25:43;12.47;;;4.83;;
286;SDS011;127;48.770;9.212;2022-10-30T09:28:12;14.50;;;5.60;;
286;SDS011;127;48.770;9.212;2022-10-30T09:30:41;14.33;;;5.10;;
286;SDS011;127;48.770;9.212;2022-10-30T09:33:17;16.80;;;4.83;;
286;SDS011;127;48.770;9.212;2022-10-30T09:35:48;12.10;;;4.93;;
286;SDS011;127;48.770;9.212;2022-10-30T09:38:16;17.50;;;5.77;;
286;SDS011;127;48.770;9.212;2022-10-30T09:40:50;17.10;;;6.03;;
286;SDS011;127;48.770;9.212;2022-10-30T09:43:39;12.80;;;4.30;;
286;SDS011;127;48.770;9.212;2022-10-30T09:46:28;12.80;;;5.07;;
286;SDS011;127;48.770;9.212;2022-10-30T09:49:20;17.03;;;5.33;;
286;SDS011;127;48.770;9.212;2022-10-30T09:52:10;11.33;;;5.30;;
286;SDS011;127;48.770;9.212;2022-10-30T09:54:49;12.80;;;5.10;;
286;SDS011;127;48.770;9.212;2022-10-30T09:57:31;12.40;;;4.57;;
286;SDS011;127;48.770;9.212;2022-10-30T10:00:04;17.57;;;5.27;;
286;SDS011;127;48.770;9.212;2022-10-30T10:02:37;17.13;;;4.80;;
286;SDS011;127;48.770;9.212;2022-10-30T10:05:20;19.27;;;5.73;;
286;SDS011;127;48.770;9.212;2022-10-30T10:07:56;19.13;;;6.20;;
286;SDS011;127;48.770;9.212;2022-10-30T10:10:32;24.97;;;6.17;;
286;SDS011;127;48.770;9.212;2022-10-30T10:13:06;17.70;;;4.50;;
286;SDS011;127;48.770;9.212;2022-10-30T10:15:42;15.63;;;5.80;;
286;SDS011;127;48.770;9.212;2022-10-30T10:18:17;15.20;;;5.63;;
286;SDS011;127;48.770;9.212;2022-10-30T10:20:49;18.13;;;6.10;;
286;SDS011;127;48.770;9.212;2022-10-30T10:23:25;13.33;;;5.40;;
286;SDS011;127;48.770;9.212;2022-10-30T10:25:57;16.37;;;5.13;;
286;SDS011;127;48.770;9.212;2022-10-30T10:28:42;14.93;;;6.07;;
286;SDS011;127;48.770;9.212;2022-10-30T10:31:20;19.90;;;6.30;;
286;SDS011;127;48.770;9.212;2022-10-30T10:33:58;17.10;;;5.77;;
286;SDS011;127;48.770;9.212;2022-10-30T10:36:38;12.63;;;5.13;;
286;SDS011;127;48.770;9.212;2022-10-30T10:39:19;13.00;;;5.60;;
286;SDS011;127;48.770;9.212;2022-10-30T10:42:01;17.30;;;5.60;;
286;SDS011;127;48.770;9.212;2022-10-30T10:44:42;14.93;;;5.03;;
286;SDS011;127;48.770;9.212;2022-10-30T10:47:34;13.47;;;5.10;;
286;SDS011;127;48.770;9.212;2022-10-30T10:50:19;15.83;;;5.07;;
286;SDS011;127;48.770;9.212;2022-10-30T10:52:52;13.13;;;5.80;;
286;SDS011;127;48.770;9.212;2022-10-30T10:55:35;13.60;;;5.20;;
286;SDS011;127;48.770;9.212;2022-10-30T11:01:30;16.17;;;4.80;;
286;SDS011;127;48.770;9.212;2022-10-30T11:04:37;15.40;;;5.07;;
286;SDS011;127;48.770;9.212;2022-10-30T11:07:28;15.30;;;5.10;;
286;SDS011;127;48.770;9.212;2022-10-30T11:10:10;13.53;;;5.43;;
286;SDS011;127;48.770;9.212;2022-10-30T11:12:43;13.60;;;5.43;;
286;SDS011;127;48.770;9.212;2022-10-30T11:15:18;15.63;;;5.20;;
286;SDS011;127;48.770;9.212;2022-10-30T11:18:00;14.83;;;5.17;;
286;SDS011;127;48.770;9.212;2022-10-30T11:20:35;12.63;;;5.03;;
286;SDS011;127;48.770;9.212;2022-10-30T11:25:59;13.67;;;6.40;;
286;SDS011;127;48.770;9.212;2022-10-30T11:28:38;14.50;;;5.93;;
286;SDS011;127;48.770;9.212;2022-10-30T11:31:19;16.23;;;5.60;;
286;SDS011;127;48.770;9.212;2022-10-30T11:33:51;18.37;;;5.20;;
286;SDS011;127;48.770;9.212;2022-10-30T11:36:21;16.10;;;5.97;;
286;SDS011;127;48.770;9.212;2022-10-30T11:39:14;17.50;;;5.57;;
286;SDS011;127;48.770;9.212;2022-10-30T11:41:57;15.40;;;6.30;;
286;SDS011;127;48.770;9.212;2022-10-30T11:44:32;22.70;;;5.97;;
286;SDS011;127;48.770;9.212;2022-10-30T11:47:04;13.07;;;5.80;;
286;SDS011;127;48.770;9.212;2022-10-30T11:49:42;9.20;;;5.13;;
286;SDS011;127;48.770;9.212;2022-10-30T11:52:14;20.00;;;5.53;;
286;SDS011;127;48.770;9.212;2022-10-30T11:54:47;12.87;;;5.60;;
286;SDS011;127;48.770;9.212;2022-10-30T11:57:20;16.03;;;7.00;;
286;SDS011;127;48.770;9.212;2022-10-30T11:59:54;16.87;;;7.97;;
286;SDS011;127;48.770;9.212;2022-10-30T12:02:45;18.67;;;7.67;;
286;SDS011;127;48.770;9.212;2022-10-30T12:05:36;23.03;;;7.90;;
286;SDS011;127;48.770;9.212;2022-10-30T12:08:16;19.93;;;8.17;;
286;SDS011;127;48.770;9.212;2022-10-30T12:10:55;15.10;;;6.80;;
286;SDS011;127;48.770;9.212;2022-10-30T12:13:35;18.50;;;6.17;;
286;SDS011;127;48.770;9.212;2022-10-30T12:16:11;22.50;;;5.90;;
286;SDS011;127;48.770;9.212;2022-10-30T12:18:50;19.60;;;5.80;;
286;SDS011;127;48.770;9.212;2022-10-30T12:21:26;22.53;;;6.17;;
286;SDS011;127;48.770;9.212;2022-10-30T12:24:11;21.03;;;5.00;;
286;SDS011;127;48.770;9.212;2022-10-30T12:26:46;11.70;;;5.47;;
286;SDS011;127;48.770;9.212;2022-10-30T12:29:17;14.40;;;5.37;;
286;SDS011;127;48.770;9.212;2022-10-30T12:31:54;12.93;;;4.60;;
286;SDS011;127;48.770;9.212;2022-10-30T12:34:33;18.20;;;5.73;;
286;SDS011;127;48.770;9.212;2022-10-30T12:37:08;20.80;;;5.03;;
286;SDS011;127;48.770;9.212;2022-10-30T12:39:44;14.67;;;4.83;;
286;SDS011;127;48.770;9.212;2022-10-30T12:42:20;11.23;;;5.20;;
286;SDS011;127;48.770;9.212;2022-10-30T12:44:51;17.87;;;5.07;;
286;SDS011;127;48.770;9.212;2022-10-30T12:47:33;11.40;;;4.70;;
286;SDS011;127;48.770;9.212;2022-10-30T12:50:09;17.50;;;5.47;;
286;SDS011;127;48.770;9.212;2022-10-30T12:52:47;13.43;;;4.90;;
286;SDS011;127;48.770;9.212;2022-10-30T12:55:19;22.47;;;5.90;;
286;SDS011;127;48.770;9.212;2022-10-30T12:57:55;15.40;;;6.70;;
286;SDS011;127;48.770;9.212;2022-10-30T13:00:30;17.97;;;5.27;;
286;SDS011;127;48.770;9.212;2022-10-30T13:03:14;13.13;;;5.37;;
286;SDS011;127;48.770;9.212;2022-10-30T13:05:50;11.13;;;4.23;;
286;SDS011;127;48.770;9.212;2022-10-30T13:08:24;14.70;;;4.80;;
286;SDS011;127;48.770;9.212;2022-10-30T13:10:57;21.70;;;4.53;;
286;SDS011;127;48.770;9.212;2022-10-30T13:13:32;18.00;;;5.63;;
286;SDS011;127;48.770;9.212;2022-10-30T13:16:06;20.00;;;5.43;;
286;SDS011;127;48.770;9.212;2022-10-30T13:18:42;28.53;;;5.27;;
286;SDS011;127;48.770;9.212;2022-10-30T13:21:15;25.67;;;6.03;;
286;SDS011;127;48.770;9.212;2022-10-30T13:23:51;20.90;;;6.10;;
286;SDS011;127;48.770;9.212;2022-10-30T13:26:31;13.60;;;5.23;;
286;SDS011;127;48.770;9.212;2022-10-30T13:29:08;18.57;;;5.43;;
286;SDS011;127;48.770;9.212;2022-10-30T13:31:44;13.37;;;5.17;;
286;SDS011;127;48.770;9.212;2022-10-30T13:34:34;14.03;;;5.53;;
286;SDS011;127;48.770;9.212;2022-10-30T13:37:11;21.13;;;5.67;;
286;SDS011;127;48.770;9.212;2022-10-30T13:39:46;13.77;;;6.30;;
286;SDS011;127;48.770;9.212;2022-10-30T13:42:28;14.07;;;4.70;;
286;SDS011;127;48.770;9.212;2022-10-30T13:45:10;16.73;;;5.53;;
286;SDS011;127;48.770;9.212;2022-10-30T13:51:05;17.27;;;6.43;;
286;SDS011;127;48.770;9.212;2022-10-30T13:53:48;14.33;;;6.50;;
286;SDS011;127;48.770;9.212;2022-10-30T13:56:27;21.57;;;7.90;;
286;SDS011;127;48.770;9.212;2022-10-30T13:59:00;22.87;;;9.80;;
286;SDS011;127;48.770;9.212;2022-10-30T14:01:34;17.20;;;7.70;;
286;SDS011;127;48.770;9.212;2022-10-30T14:04:09;17.80;;;8.00;;
286;SDS011;127;48.770;9.212;2022-10-30T14:06:46;18.90;;;8.00;;
286;SDS011;127;48.770;9.212;2022-10-30T14:09:21;17.67;;;7.87;;
286;SDS011;127;48.770;9.212;2022-10-30T14:11:59;18.90;;;9.17;;
286;SDS011;127;48.770;9.212;2022-10-30T14:14:48;18.33;;;7.33;;
286;SDS011;127;48.770;9.212;2022-10-30T14:17:17;18.80;;;7.60;;
286;SDS011;127;48.770;9.212;2022-10-30T14:22:47;15.83;;;3.57;;
286;SDS011;127;48.770;9.212;2022-10-30T14:25:33;13.57;;;4.07;;
286;SDS011;127;48.770;9.212;2022-10-30T14:28:02;8.47;;;3.30;;
286;SDS011;127;48.770;9.212;2022-10-30T14:30:32;5.33;;;3.40;;
286;SDS011;127;48.770;9.212;2022-10-30T14:33:02;13.20;;;3.53;;
286;SDS011;127;48.770;9.212;2022-10-30T14:35:34;10.07;;;3.70;;
286;SDS011;127;48.770;9.212;2022-10-30T14:38:21;7.40;;;3.80;;
286;SDS011;127;48.770;9.212;2022-10-30T14:41:01;12.67;;;4.17;;
286;SDS011;127;48.770;9.212;2022-10-30T14:44:04;17.33;;;5.00;;
286;SDS011;127;48.770;9.212;2022-10-30T14:46:52;12.37;;;5.13;;
286;SDS011;127;48.770;9.212;2022-10-30T14:49:31;11.00;;;5.83;;
286;SDS011;127;48.770;9.212;2022-10-30T14:52:20;12.53;;;5.47;;
286;SDS011;127;48.770;9.212;2022-10-30T14:55:01;15.23;;;5.37;;
286;SDS011;127;48.770;9.212;2022-10-30T14:57:43;13.17;;;5.43;;
286;SDS011;127;48.770;9.212;2022-10-30T15:03:23;19.50;;;6.00;;
286;SDS011;127;48.770;9.212;2022-10-30T15:06:12;19.27;;;6.47;;
286;SDS011;127;48.770;9.212;2022-10-30T15:08:52;15.57;;;6.00;;
286;SDS011;127;48.770;9.212;2022-10-30T15:14:26;11.30;;;5.33;;
286;SDS011;127;48.770;9.212;2022-10-30T15:16:59;13.60;;;5.07;;
286;SDS011;127;48.770;9.212;2022-10-30T15:19:28;15.13;;;4.83;;
286;SDS011;127;48.770;9.212;2022-10-30T15:21:59;18.27;;;4.73;;
286;SDS011;127;48.770;9.212;2022-10-30T15:24:28;13.13;;;4.23;;
286;SDS011;127;48.770;9.212;2022-10-30T15:26:59;16.90;;;3.93;;
286;SDS011;127;48.770;9.212;2022-10-30T15:29:30;14.10;;;4.73;;
286;SDS011;127;48.770;9.212;2022-10-30T15:32:02;12.17;;;4.53;;
286;SDS011;127;48.770;9.212;2022-10-30T15:34:50;22.90;;;5.70;;
286;SDS011;127;48.770;9.212;2022-10-30T15:37:20;22.13;;;6.53;;
286;SDS011;127;48.770;9.212;2022-10-30T15:40:02;20.00;;;7.17;;
286;SDS011;127;48.770;9.212;2022-10-30T15:42:39;13.20;;;6.00;;
286;SDS011;127;48.770;9.212;2022-10-30T15:45:10;14.93;;;6.40;;
286;SDS011;127;48.770;9.212;2022-10-30T15:47:45;18.20;;;5.83;;
286;SDS011;127;48.770;9.212;2022-10-30T15:50:17;18.23;;;6.33;;
286;SDS011;127;48.770;9.212;2022-10-30T15:52:46;15.63;;;5.87;;
286;SDS011;127;48.770;9.212;2022-10-30T15:55:15;12.37;;;5.83;;
286;SDS011;127;48.770;9.212;2022-10-30T15:57:50;12.33;;;5.60;;
286;SDS011;127;48.770;9.212;2022-10-30T16:00:20;14.23;;;6.00;;
286;SDS011;127;48.770;9.212;2022-10-30T16:02:57;14.00;;;6.00;;
286;SDS011;127;48.770;9.212;2022-10-30T16:05:28;15.17;;;5.27;;
286;SDS011;127;48.770;9.212;2022-10-30T16:07:58;17.33;;;6.00;;
286;SDS011;127;48.770;9.212;2022-10-30T16:10:30;15.60;;;6.00;;
286;SDS011;127;48.770;9.212;2022-10-30T16:13:03;13.43;;;5.43;;
286;SDS011;127;48.770;9.212;2022-10-30T16:15:33;28.27;;;5.40;;
286;SDS011;127;48.770;9.212;2022-10-30T16:18:06;9.57;;;4.80;;
286;SDS011;127;48.770;9.212;2022-10-30T16:20:44;13.00;;;5.50;;
286;SDS011;127;48.770;9.212;2022-10-30T16:23:16;18.97;;;5.10;;
286;SDS011;127;48.770;9.212;2022-10-30T16:25:47;13.60;;;4.43;;
286;SDS011;127;48.770;9.212;2022-10-30T16:28:24;9.00;;;3.70;;